Time;durP1;ratioP1;P1;durP2;ratioP2;P2;SDS_P1;SDS_P2;PMS_P1;PMS_P2;Temp;Humidity;BMP_temperature;BMP_pressure;BME280_temperature;BME280_humidity;BME280_pressure;Samples;Min_cycle;Max_cycle;Signal;HPM_P1;HPM_P2
2021/07/10 00:00:37;;;;;;;12.60;5.80;;;19.80;80.60;;;;;;4994898;28;20054;-81
2021/07/10 00:03:05;;;;;;;10.98;5.72;;;19.80;80.70;;;;;;4993554;28;20358;-81
2021/07/10 00:05:31;;;;;;;11.63;5.90;;;19.70;80.80;;;;;;4995214;28;20025;-81
2021/07/10 00:07:56;;;;;;;11.52;5.80;;;19.70;80.80;;;;;;4993576;28;20022;-81
2021/07/10 00:10:22;;;;;;;12.25;6.03;;;19.70;80.90;;;;;;4993954;28;20026;-81
2021/07/10 00:12:48;;;;;;;11.45;5.97;;;19.60;80.90;;;;;;5009867;28;20109;-80
2021/07/10 00:15:18;;;;;;;10.90;5.35;;;19.70;81.10;;;;;;4992585;28;20022;-81
2021/07/10 00:17:44;;;;;;;9.45;6.03;;;19.60;81.20;;;;;;4994802;28;20526;-81
2021/07/10 00:20:11;;;;;;;11.35;5.47;;;19.60;81.00;;;;;;4992828;28;20049;-81
2021/07/10 00:22:37;;;;;;;9.77;5.28;;;19.70;81.20;;;;;;4993288;28;20018;-81
2021/07/10 00:25:11;;;;;;;13.13;5.85;;;19.70;81.20;;;;;;4993094;28;20039;-80
2021/07/10 00:27:38;;;;;;;11.40;5.95;;;19.70;81.30;;;;;;4993605;28;20085;-80
2021/07/10 00:30:05;;;;;;;12.48;6.10;;;19.70;81.30;;;;;;4993076;28;20097;-81
2021/07/10 00:32:31;;;;;;;12.85;6.47;;;19.60;81.40;;;;;;4993883;28;20022;-81
2021/07/10 00:34:56;;;;;;;11.38;5.50;;;19.60;81.60;;;;;;4994678;28;20049;-81
2021/07/10 00:37:22;;;;;;;10.82;5.43;;;19.60;81.80;;;;;;4993895;28;20023;-80
2021/07/10 00:39:48;;;;;;;9.82;5.65;;;19.50;81.80;;;;;;4994656;28;20022;-81
2021/07/10 00:42:17;;;;;;;12.95;6.00;;;19.60;82.00;;;;;;4993465;28;20054;-81
2021/07/10 00:44:43;;;;;;;12.82;5.90;;;19.50;82.00;;;;;;4994710;28;20030;-81
2021/07/10 00:47:09;;;;;;;10.10;5.90;;;19.50;82.10;;;;;;4994312;28;20368;-81
2021/07/10 00:49:35;;;;;;;11.55;5.60;;;19.50;82.20;;;;;;4994476;28;20111;-81
2021/07/10 00:52:00;;;;;;;14.40;5.93;;;19.50;82.30;;;;;;4993843;28;20022;-81
2021/07/10 00:54:26;;;;;;;14.38;6.32;;;19.40;82.40;;;;;;4993052;28;20026;-81
2021/07/10 00:56:58;;;;;;;11.63;6.80;;;19.40;82.40;;;;;;4994041;28;20378;-81
2021/07/10 00:59:25;;;;;;;14.55;6.88;;;19.40;83.20;;;;;;4992064;28;20018;-81
2021/07/10 01:01:51;;;;;;;12.55;6.28;;;19.40;82.60;;;;;;4994153;28;20026;-81
2021/07/10 01:04:17;;;;;;;11.30;6.07;;;19.50;82.60;;;;;;4993246;28;20018;-81
2021/07/10 01:06:43;;;;;;;13.70;6.68;;;19.50;83.10;;;;;;4991594;28;20026;-81
2021/07/10 01:09:09;;;;;;;14.68;7.03;;;19.50;82.30;;;;;;4992520;28;20017;-81
2021/07/10 01:11:35;;;;;;;9.45;5.85;;;19.50;82.30;;;;;;4992381;28;20347;-81
2021/07/10 01:14:01;;;;;;;11.52;6.07;;;19.60;82.30;;;;;;4992019;28;20027;-81
2021/07/10 01:16:27;;;;;;;13.27;6.53;;;19.60;82.30;;;;;;4991617;28;20018;-81
2021/07/10 01:18:53;;;;;;;10.07;5.72;;;19.60;82.30;;;;;;4992365;28;20326;-82
2021/07/10 01:21:18;;;;;;;13.63;5.93;;;19.60;82.30;;;;;;4991562;28;20020;-81
2021/07/10 01:23:44;;;;;;;11.93;5.90;;;19.60;82.30;;;;;;4992078;28;20104;-82
2021/07/10 01:26:10;;;;;;;13.80;6.32;;;19.60;82.40;;;;;;4991635;28;20050;-82
2021/07/10 01:28:36;;;;;;;11.77;6.25;;;19.60;82.40;;;;;;4991895;28;20018;-82
2021/07/10 01:31:03;;;;;;;16.17;7.03;;;19.70;82.40;;;;;;4991987;28;20341;-82
2021/07/10 01:33:29;;;;;;;11.68;6.95;;;19.60;82.40;;;;;;4991236;28;20493;-81
2021/07/10 01:35:54;;;;;;;13.13;6.75;;;19.70;82.40;;;;;;4992137;28;20018;-81
2021/07/10 01:38:20;;;;;;;13.98;6.45;;;19.70;82.40;;;;;;4991220;28;20022;-82
2021/07/10 01:40:46;;;;;;;12.52;6.68;;;19.70;82.40;;;;;;4991717;28;20078;-82
2021/07/10 01:43:12;;;;;;;13.85;6.57;;;19.70;82.40;;;;;;4992792;28;20033;-82
2021/07/10 01:45:39;;;;;;;14.43;7.25;;;19.70;82.60;;;;;;4991683;28;20022;-81
2021/07/10 01:48:06;;;;;;;15.45;6.25;;;19.70;82.60;;;;;;4991771;28;20015;-82
2021/07/10 01:50:32;;;;;;;14.52;7.07;;;19.60;82.60;;;;;;4992549;28;20361;-82
2021/07/10 01:52:57;;;;;;;14.07;6.57;;;19.70;82.80;;;;;;4991788;28;20018;-81
2021/07/10 01:55:24;;;;;;;11.35;6.38;;;19.60;82.80;;;;;;4990792;28;20027;-80
2021/07/10 01:57:51;;;;;;;13.65;6.30;;;19.60;82.90;;;;;;4991783;28;20018;-81
2021/07/10 02:00:25;;;;;;;11.60;6.05;;;19.50;83.10;;;;;;4992346;28;20018;-81
2021/07/10 02:02:51;;;;;;;15.13;6.50;;;19.50;83.30;;;;;;4992734;28;20018;-80
2021/07/10 02:05:19;;;;;;;12.65;6.65;;;19.50;83.40;;;;;;4991121;28;20348;-81
2021/07/10 02:07:46;;;;;;;12.02;6.68;;;19.40;83.70;;;;;;4993053;28;20050;-81
2021/07/10 02:10:13;;;;;;;14.70;6.93;;;19.40;83.70;;;;;;4991480;28;20447;-80
2021/07/10 02:12:43;;;;;;;12.23;6.35;;;19.40;83.80;;;;;;4991441;28;20026;-81
2021/07/10 02:15:10;;;;;;;11.38;6.72;;;19.40;83.90;;;;;;4991363;28;20143;-81
2021/07/10 02:17:36;;;;;;;12.07;6.85;;;19.40;83.80;;;;;;4992277;28;20018;-81
2021/07/10 02:20:08;;;;;;;13.07;6.72;;;19.40;83.90;;;;;;4998113;28;20129;-81
2021/07/10 02:22:34;;;;;;;12.93;6.63;;;19.40;84.00;;;;;;4997384;28;20270;-81
2021/07/10 02:25:00;;;;;;;14.68;7.40;;;19.40;84.00;;;;;;4997735;28;20121;-81
2021/07/10 02:27:27;;;;;;;17.75;7.63;;;19.40;84.00;;;;;;4998442;28;20022;-81
2021/07/10 02:29:53;;;;;;;14.65;7.38;;;19.40;84.10;;;;;;4997747;28;20057;-81
2021/07/10 02:32:18;;;;;;;15.25;7.60;;;19.40;84.10;;;;;;4997149;28;20431;-81
2021/07/10 02:34:44;;;;;;;15.90;7.47;;;19.40;84.10;;;;;;4997692;28;20023;-80
2021/07/10 02:37:10;;;;;;;13.23;7.38;;;19.40;84.20;;;;;;4998798;28;20025;-80
2021/07/10 02:39:36;;;;;;;14.90;7.90;;;19.30;84.20;;;;;;4997041;28;20018;-80
2021/07/10 02:42:02;;;;;;;14.73;7.60;;;19.30;84.30;;;;;;4997682;28;20252;-81
2021/07/10 02:44:28;;;;;;;15.63;7.53;;;19.30;84.50;;;;;;4997121;28;20045;-80
2021/07/10 02:46:55;;;;;;;17.80;7.70;;;19.20;84.60;;;;;;4999364;28;20447;-80
2021/07/10 02:49:21;;;;;;;15.75;8.05;;;19.20;84.70;;;;;;4997061;28;20137;-80
2021/07/10 02:51:47;;;;;;;17.50;8.23;;;19.20;84.80;;;;;;4997705;28;20022;-80
2021/07/10 02:54:13;;;;;;;14.25;7.32;;;19.20;84.90;;;;;;4997530;28;20450;-80
2021/07/10 02:56:38;;;;;;;16.45;7.53;;;19.10;85.00;;;;;;4996888;28;20427;-80
2021/07/10 02:59:04;;;;;;;16.98;7.63;;;19.10;85.20;;;;;;4997608;28;20508;-80
2021/07/10 03:01:30;;;;;;;15.85;7.50;;;19.00;85.20;;;;;;4996533;28;20029;-81
2021/07/10 03:03:56;;;;;;;14.25;6.70;;;19.00;85.30;;;;;;4998435;28;20101;-80
2021/07/10 03:06:21;;;;;;;16.92;7.63;;;19.00;85.40;;;;;;4996744;28;20105;-80
2021/07/10 03:08:47;;;;;;;17.55;7.38;;;19.00;86.10;;;;;;4998716;28;20030;-80
2021/07/10 03:11:13;;;;;;;13.02;7.07;;;19.00;85.60;;;;;;4997157;28;20067;-81
2021/07/10 03:13:39;;;;;;;15.20;8.40;;;18.90;85.70;;;;;;4998044;28;20081;-81
2021/07/10 03:16:05;;;;;;;14.90;7.72;;;18.90;85.80;;;;;;4997393;28;20022;-80
2021/07/10 03:18:31;;;;;;;13.15;6.70;;;18.90;85.90;;;;;;4996917;28;20361;-80
2021/07/10 03:20:57;;;;;;;13.00;6.40;;;18.90;86.00;;;;;;4998268;28;20038;-80
2021/07/10 03:23:22;;;;;;;13.85;6.80;;;18.80;85.90;;;;;;4996788;28;20036;-80
2021/07/10 03:25:48;;;;;;;13.60;7.43;;;18.90;86.10;;;;;;4996827;28;20061;-80
2021/07/10 03:28:15;;;;;;;17.35;8.82;;;18.80;86.10;;;;;;4997179;28;20109;-80
2021/07/10 03:30:41;;;;;;;15.05;7.70;;;18.80;86.30;;;;;;4992825;28;20018;-80
2021/07/10 03:33:07;;;;;;;13.18;7.45;;;18.80;86.40;;;;;;4993769;28;20014;-80
2021/07/10 03:35:32;;;;;;;11.75;6.80;;;18.80;86.40;;;;;;4993568;28;20018;-81
2021/07/10 03:37:58;;;;;;;14.88;6.88;;;18.80;86.40;;;;;;4994486;28;20014;-80
2021/07/10 03:40:25;;;;;;;13.80;7.05;;;18.70;86.40;;;;;;4994770;28;20350;-80
2021/07/10 03:42:51;;;;;;;13.05;6.35;;;18.70;86.50;;;;;;4995269;28;20026;-80
2021/07/10 03:45:18;;;;;;;16.70;7.45;;;18.70;86.50;;;;;;4993897;28;20018;-80
2021/07/10 03:47:43;;;;;;;11.90;6.57;;;18.70;86.60;;;;;;4994902;28;20022;-81
2021/07/10 03:50:12;;;;;;;11.85;6.43;;;18.70;86.60;;;;;;4993790;28;20038;-80
2021/07/10 03:52:38;;;;;;;14.60;6.93;;;18.70;86.70;;;;;;4993246;28;20019;-80
2021/07/10 03:55:11;;;;;;;15.95;7.35;;;18.70;86.70;;;;;;4993635;28;20366;-81
2021/07/10 03:57:36;;;;;;;12.93;6.47;;;18.70;86.70;;;;;;4993119;28;20038;-80
2021/07/10 04:00:25;;;;;;;13.73;6.50;;;18.70;86.70;;;;;;4993708;28;20022;-80
2021/07/10 04:02:51;;;;;;;13.98;6.22;;;18.70;86.70;;;;;;4993819;28;20022;-80
2021/07/10 04:05:17;;;;;;;14.00;6.25;;;18.70;86.60;;;;;;4993522;28;20026;-79
2021/07/10 04:07:42;;;;;;;12.50;6.43;;;18.70;86.70;;;;;;4993892;28;20037;-80
2021/07/10 04:10:10;;;;;;;13.05;6.22;;;18.70;86.70;;;;;;4993387;28;20423;-80
2021/07/10 04:12:36;;;;;;;14.57;7.43;;;18.70;86.70;;;;;;4992866;28;20022;-80
2021/07/10 04:15:02;;;;;;;17.33;7.13;;;18.70;86.60;;;;;;4994549;28;20030;-80
2021/07/10 04:17:29;;;;;;;14.13;7.28;;;18.70;86.60;;;;;;4992668;28;20011;-79
2021/07/10 04:19:55;;;;;;;10.48;5.97;;;18.70;86.60;;;;;;4993171;28;20351;-79
2021/07/10 04:22:22;;;;;;;10.55;6.13;;;18.70;86.60;;;;;;4993335;28;20504;-80
2021/07/10 04:24:48;;;;;;;15.52;7.22;;;18.70;86.60;;;;;;4994419;28;20043;-79
2021/07/10 04:27:14;;;;;;;13.93;7.25;;;18.70;86.60;;;;;;4993174;28;20022;-81
2021/07/10 04:29:40;;;;;;;14.88;7.75;;;18.70;86.60;;;;;;4992585;28;20015;-81
2021/07/10 04:32:06;;;;;;;18.15;7.43;;;18.70;86.60;;;;;;4993256;28;20105;-80
2021/07/10 04:34:31;;;;;;;15.73;7.60;;;18.70;86.70;;;;;;4993762;28;20050;-80
2021/07/10 04:36:57;;;;;;;12.82;6.22;;;18.80;86.70;;;;;;4993289;28;20022;-80
2021/07/10 04:39:23;;;;;;;15.18;7.60;;;18.80;86.70;;;;;;4994339;28;20065;-79
2021/07/10 04:41:49;;;;;;;14.27;6.90;;;18.80;86.70;;;;;;4992813;28;20531;-80
2021/07/10 04:44:14;;;;;;;14.05;7.22;;;18.80;86.70;;;;;;4993118;28;20093;-80
2021/07/10 04:46:40;;;;;;;18.17;8.10;;;18.90;86.80;;;;;;4992456;28;20045;-80
2021/07/10 04:49:06;;;;;;;16.45;8.00;;;18.90;86.70;;;;;;4993041;28;20061;-80
2021/07/10 04:51:31;;;;;;;16.52;6.47;;;18.90;86.70;;;;;;4992291;28;20014;-80
2021/07/10 04:53:57;;;;;;;15.65;7.72;;;18.90;86.70;;;;;;4992761;28;20030;-81
2021/07/10 04:56:23;;;;;;;14.90;7.88;;;18.90;86.70;;;;;;4993979;28;20033;-80
2021/07/10 04:58:48;;;;;;;14.63;7.75;;;18.90;86.80;;;;;;4991925;28;20427;-80
2021/07/10 05:01:14;;;;;;;17.17;7.93;;;19.00;86.90;;;;;;4993723;28;20025;-80
2021/07/10 05:03:40;;;;;;;19.25;8.00;;;19.00;87.00;;;;;;4991868;28;20137;-80
2021/07/10 05:06:08;;;;;;;17.33;8.05;;;19.00;87.00;;;;;;4992443;28;20026;-80
2021/07/10 05:08:34;;;;;;;16.35;8.77;;;19.00;87.10;;;;;;4991787;28;20028;-80
2021/07/10 05:11:00;;;;;;;17.75;8.68;;;19.00;87.20;;;;;;4992448;28;20109;-80
2021/07/10 05:13:26;;;;;;;17.90;9.10;;;19.00;87.20;;;;;;4992268;28;20026;-80
2021/07/10 05:15:51;;;;;;;17.30;8.45;;;19.00;87.30;;;;;;4993677;28;20034;-81
2021/07/10 05:18:17;;;;;;;18.50;9.35;;;19.00;87.30;;;;;;4992264;28;20443;-80
2021/07/10 05:20:43;;;;;;;16.52;8.75;;;19.00;87.40;;;;;;4992970;28;20023;-80
2021/07/10 05:23:08;;;;;;;20.33;9.70;;;19.00;87.50;;;;;;4992238;28;20020;-80
2021/07/10 05:25:34;;;;;;;18.45;9.57;;;19.00;87.40;;;;;;4991463;28;20069;-81
2021/07/10 05:28:00;;;;;;;21.20;10.60;;;19.00;87.50;;;;;;4991745;28;20018;-81
2021/07/10 05:30:25;;;;;;;20.75;9.60;;;19.10;87.50;;;;;;4993632;28;20022;-80
2021/07/10 05:32:51;;;;;;;18.33;9.88;;;19.00;87.50;;;;;;4992562;28;20042;-80
2021/07/10 05:35:18;;;;;;;20.63;9.50;;;19.10;87.60;;;;;;4991908;28;20064;-80
2021/07/10 05:37:45;;;;;;;19.77;9.38;;;19.10;87.60;;;;;;4991388;28;20028;-81
2021/07/10 05:40:11;;;;;;;21.75;10.23;;;19.10;87.30;;;;;;4993186;28;20015;-81
2021/07/10 05:42:37;;;;;;;20.90;9.93;;;19.10;87.20;;;;;;4991292;28;20021;-81
2021/07/10 05:45:04;;;;;;;17.75;8.77;;;19.20;87.10;;;;;;4991810;28;20509;-81
2021/07/10 05:47:29;;;;;;;20.75;9.52;;;19.20;87.00;;;;;;4991053;28;20014;-81
2021/07/10 05:49:55;;;;;;;19.63;9.82;;;19.20;86.90;;;;;;4991710;28;20072;-81
2021/07/10 05:52:21;;;;;;;20.95;10.02;;;19.20;86.80;;;;;;4991124;28;20358;-81
2021/07/10 05:54:46;;;;;;;21.50;10.30;;;19.30;86.80;;;;;;4992174;28;20030;-81
2021/07/10 05:57:12;;;;;;;18.52;9.98;;;19.30;86.70;;;;;;4991540;28;20032;-81
2021/07/10 05:59:37;;;;;;;22.70;10.73;;;19.40;86.60;;;;;;4990889;28;20026;-81
2021/07/10 06:02:06;;;;;;;22.42;10.68;;;19.40;86.50;;;;;;4991434;28;20015;-80
2021/07/10 06:04:33;;;;;;;16.95;9.25;;;19.50;86.40;;;;;;4990925;28;20025;-80
2021/07/10 06:06:59;;;;;;;22.17;9.82;;;19.50;86.30;;;;;;4991617;28;20363;-80
2021/07/10 06:09:24;;;;;;;22.70;11.43;;;19.60;86.20;;;;;;4992309;28;20462;-81
2021/07/10 06:11:50;;;;;;;22.02;12.35;;;19.60;86.00;;;;;;4991731;28;20089;-81
2021/07/10 06:14:16;;;;;;;20.33;10.70;;;19.70;85.80;;;;;;4991216;28;20030;-81
2021/07/10 06:16:41;;;;;;;23.40;12.43;;;19.80;85.60;;;;;;4990609;28;20018;-81
2021/07/10 06:19:07;;;;;;;23.98;13.00;;;19.80;85.40;;;;;;4991367;28;20030;-81
2021/07/10 06:21:33;;;;;;;24.90;13.10;;;19.80;85.20;;;;;;4990784;28;20022;-81
2021/07/10 06:23:58;;;;;;;23.67;12.52;;;19.80;85.00;;;;;;4991282;28;20488;-81
2021/07/10 06:26:24;;;;;;;24.88;13.70;;;19.90;84.90;;;;;;4991091;28;20066;-81
2021/07/10 06:28:50;;;;;;;22.45;11.32;;;19.80;84.70;;;;;;4991268;28;20053;-81
2021/07/10 06:31:20;;;;;;;28.00;13.40;;;19.90;84.80;;;;;;4992036;28;20374;-81
2021/07/10 06:33:47;;;;;;;27.58;13.60;;;19.90;84.80;;;;;;4991171;28;20019;-81
2021/07/10 06:36:13;;;;;;;24.88;13.07;;;19.90;84.50;;;;;;4991355;28;20018;-81
2021/07/10 06:38:39;;;;;;;27.50;12.98;;;19.90;84.40;;;;;;4990715;28;20045;-81
2021/07/10 06:41:05;;;;;;;23.95;12.10;;;19.90;84.40;;;;;;4992179;28;20454;-82
2021/07/10 06:43:31;;;;;;;27.92;13.23;;;19.90;84.30;;;;;;4991148;28;20022;-82
2021/07/10 06:45:56;;;;;;;23.50;13.05;;;19.90;84.90;;;;;;4990373;28;20061;-82
2021/07/10 06:48:23;;;;;;;22.05;11.73;;;19.90;84.40;;;;;;4990776;28;20027;-82
2021/07/10 06:50:49;;;;;;;20.65;12.02;;;19.90;84.20;;;;;;4990175;28;20023;-82
2021/07/10 06:53:21;;;;;;;30.60;14.05;;;20.00;84.10;;;;;;4990703;28;20025;-82
2021/07/10 06:55:48;;;;;;;27.85;13.77;;;20.00;84.00;;;;;;4990474;28;20121;-82
2021/07/10 06:58:13;;;;;;;24.58;12.43;;;20.10;84.10;;;;;;4990961;28;20451;-82
2021/07/10 07:00:39;;;;;;;28.40;13.93;;;20.10;84.00;;;;;;4990408;28;20018;-81
2021/07/10 07:03:04;;;;;;;22.17;12.55;;;20.10;83.90;;;;;;4992280;28;20014;-81
2021/07/10 07:05:30;;;;;;;26.50;14.55;;;20.10;83.80;;;;;;4993014;28;20057;-82
2021/07/10 07:07:56;;;;;;;22.77;12.82;;;20.20;83.80;;;;;;4993980;28;20117;-82
2021/07/10 07:10:21;;;;;;;20.42;11.73;;;20.20;83.70;;;;;;4995804;28;20033;-81
2021/07/10 07:12:47;;;;;;;21.23;11.38;;;20.20;83.50;;;;;;4993901;28;20019;-82
2021/07/10 07:15:13;;;;;;;21.17;11.77;;;20.20;83.60;;;;;;4995318;28;20455;-81
2021/07/10 07:17:40;;;;;;;23.02;13.18;;;20.20;83.50;;;;;;4993878;28;20030;-81
2021/07/10 07:20:11;;;;;;;25.00;12.70;;;20.20;83.50;;;;;;4994334;28;20037;-81
2021/07/10 07:22:37;;;;;;;22.85;12.13;;;20.30;83.50;;;;;;4993675;28;20113;-81
2021/07/10 07:25:04;;;;;;;22.35;12.60;;;20.20;83.40;;;;;;4993931;28;20133;-81
2021/07/10 07:27:30;;;;;;;24.30;13.23;;;20.30;83.40;;;;;;4994305;28;20011;-81
2021/07/10 07:29:56;;;;;;;23.55;12.50;;;20.30;83.30;;;;;;4993673;28;20430;-81
2021/07/10 07:32:21;;;;;;;20.83;11.48;;;20.30;83.20;;;;;;4994390;28;20368;-82
2021/07/10 07:34:48;;;;;;;21.08;11.60;;;20.30;83.10;;;;;;4994813;28;20118;-81
2021/07/10 07:37:15;;;;;;;17.35;10.10;;;20.40;82.80;;;;;;4994191;28;20069;-82
2021/07/10 07:39:44;;;;;;;18.50;9.43;;;20.40;82.60;;;;;;4993415;28;20018;-81
2021/07/10 07:42:10;;;;;;;18.50;10.95;;;20.40;82.50;;;;;;4994226;28;20030;-81
2021/07/10 07:44:36;;;;;;;20.45;11.10;;;20.50;82.40;;;;;;4993832;28;20089;-81
2021/07/10 07:47:02;;;;;;;18.13;10.45;;;20.50;82.10;;;;;;4995413;28;20451;-82
2021/07/10 07:49:28;;;;;;;19.75;10.95;;;20.60;81.90;;;;;;4993771;28;20033;-81
2021/07/10 07:51:53;;;;;;;19.92;10.18;;;20.70;81.70;;;;;;4992834;28;20026;-81
2021/07/10 07:54:19;;;;;;;23.15;11.48;;;20.70;81.40;;;;;;4994755;28;20152;-82
2021/07/10 07:56:45;;;;;;;19.17;9.88;;;20.80;81.30;;;;;;4993068;28;20351;-82
2021/07/10 07:59:10;;;;;;;18.98;10.10;;;20.80;81.10;;;;;;4994750;28;20105;-82
2021/07/10 08:01:36;;;;;;;19.67;8.50;;;20.90;80.90;;;;;;4993636;28;20023;-83
2021/07/10 08:04:02;;;;;;;15.48;9.30;;;20.90;80.70;;;;;;4992929;28;20022;-82
2021/07/10 08:06:28;;;;;;;14.95;8.38;;;21.00;80.40;;;;;;4993590;28;20029;-82
2021/07/10 08:08:54;;;;;;;16.73;8.63;;;21.10;80.10;;;;;;4992831;28;20050;-82
2021/07/10 08:11:19;;;;;;;13.95;6.93;;;21.20;79.80;;;;;;4995066;28;20451;-81
2021/07/10 08:13:46;;;;;;;17.45;9.15;;;21.30;79.70;;;;;;4992677;28;20053;-81
2021/07/10 08:16:12;;;;;;;15.30;8.23;;;21.30;79.10;;;;;;4992918;28;20014;-82
2021/07/10 08:18:38;;;;;;;14.52;7.85;;;21.30;79.00;;;;;;4992944;28;20021;-82
2021/07/10 08:21:05;;;;;;;14.35;7.78;;;21.30;78.90;;;;;;4994354;28;20117;-82
2021/07/10 08:23:30;;;;;;;13.93;7.80;;;21.30;78.70;;;;;;4993199;28;20014;-82
2021/07/10 08:25:57;;;;;;;14.52;7.32;;;21.30;78.60;;;;;;4991996;28;20050;-82
2021/07/10 08:28:23;;;;;;;13.30;7.47;;;21.40;78.50;;;;;;4993157;28;20080;-82
2021/07/10 08:30:49;;;;;;;12.77;6.97;;;21.40;78.40;;;;;;4992597;28;20094;-82
2021/07/10 08:33:14;;;;;;;11.18;6.30;;;21.40;78.30;;;;;;4993112;28;20022;-82
2021/07/10 08:35:40;;;;;;;12.52;7.00;;;21.40;78.00;;;;;;4993210;28;20018;-82
2021/07/10 08:38:06;;;;;;;15.77;8.48;;;21.50;78.00;;;;;;4993545;28;20049;-82
2021/07/10 08:40:32;;;;;;;13.68;7.75;;;21.50;77.80;;;;;;4993627;28;20049;-82
2021/07/10 08:42:58;;;;;;;16.75;7.70;;;21.50;77.80;;;;;;4992430;28;20044;-82
2021/07/10 08:45:29;;;;;;;14.73;8.00;;;21.50;77.70;;;;;;4994524;28;20026;-82
2021/07/10 08:47:55;;;;;;;12.75;6.95;;;21.50;77.80;;;;;;5009565;28;20028;-83
2021/07/10 08:50:21;;;;;;;14.95;7.47;;;21.50;77.70;;;;;;4994704;28;20101;-83
2021/07/10 08:52:48;;;;;;;12.32;6.45;;;21.40;77.60;;;;;;4992681;28;20022;-81
2021/07/10 08:55:15;;;;;;;9.52;5.07;;;21.50;77.50;;;;;;4992914;28;20030;-82
2021/07/10 08:57:41;;;;;;;12.82;6.35;;;21.50;77.40;;;;;;4993233;28;20026;-82
2021/07/10 09:00:09;;;;;;;15.07;6.22;;;21.50;77.40;;;;;;4992757;28;20498;-82
2021/07/10 09:02:36;;;;;;;13.85;7.63;;;21.50;77.30;;;;;;4993166;28;20104;-82
2021/07/10 09:05:05;;;;;;;8.48;3.97;;;21.50;77.20;;;;;;5008479;28;20034;-82
2021/07/10 09:07:31;;;;;;;10.68;6.30;;;21.60;77.00;;;;;;4993916;28;20340;-82
2021/07/10 09:09:57;;;;;;;11.15;5.78;;;21.50;76.90;;;;;;4991994;28;20025;-82
2021/07/10 09:12:31;;;;;;;12.57;5.70;;;21.50;76.70;;;;;;4992618;28;20029;-82
2021/07/10 09:15:18;;;;;;;10.95;4.88;;;21.60;76.50;;;;;;4991915;28;20026;-82
2021/07/10 09:17:46;;;;;;;6.80;4.22;;;21.70;76.10;;;;;;4993347;28;20096;-82
2021/07/10 09:20:22;;;;;;;8.73;4.60;;;21.70;75.90;;;;;;4993790;28;20102;-83
2021/07/10 09:22:48;;;;;;;7.25;4.40;;;21.80;75.30;;;;;;4993341;28;20481;-83
2021/07/10 09:25:28;;;;;;;7.85;4.47;;;21.80;75.00;;;;;;4991861;28;20129;-83
2021/07/10 09:27:56;;;;;;;7.82;4.15;;;21.90;74.40;;;;;;4992075;28;20022;-81
2021/07/10 09:30:39;;;;;;;8.20;4.18;;;22.00;74.20;;;;;;4992234;28;20026;-82
2021/07/10 09:33:12;;;;;;;7.97;4.05;;;22.00;73.50;;;;;;4991457;28;20113;-82
2021/07/10 09:35:59;;;;;;;7.15;3.53;;;22.10;73.10;;;;;;4991822;28;20030;-82
2021/07/10 09:38:33;;;;;;;6.53;3.28;;;22.20;72.70;;;;;;4991579;28;20421;-82
2021/07/10 09:41:08;;;;;;;4.93;2.97;;;22.30;72.00;;;;;;4991291;28;20034;-82
2021/07/10 09:43:36;;;;;;;6.68;2.80;;;22.40;71.40;;;;;;4992183;28;20049;-82
2021/07/10 09:46:05;;;;;;;4.32;2.30;;;22.40;70.70;;;;;;4991340;28;20014;-82
2021/07/10 09:48:36;;;;;;;4.82;2.38;;;22.40;70.90;;;;;;4991873;28;20335;-82
2021/07/10 09:51:22;;;;;;;3.78;2.17;;;22.40;69.70;;;;;;4992340;28;20117;-82
2021/07/10 09:54:08;;;;;;;4.18;2.10;;;22.50;69.30;;;;;;4990763;28;20041;-82
2021/07/10 09:56:37;;;;;;;5.68;2.80;;;22.60;68.80;;;;;;4991686;28;20105;-82
2021/07/10 09:59:21;;;;;;;4.35;2.53;;;22.60;68.60;;;;;;4992319;28;20025;-82
2021/07/10 10:01:48;;;;;;;4.60;2.22;;;22.60;68.00;;;;;;4990647;28;20018;-82
2021/07/10 10:04:26;;;;;;;4.32;2.28;;;22.70;68.10;;;;;;4991513;28;20141;-82
2021/07/10 10:06:57;;;;;;;4.18;2.40;;;22.80;67.50;;;;;;4990924;28;20060;-82
2021/07/10 10:09:27;;;;;;;5.97;2.90;;;22.80;67.40;;;;;;4992968;28;20403;-82
2021/07/10 10:12:14;;;;;;;3.58;2.45;;;22.80;67.30;;;;;;4991162;28;20014;-83
2021/07/10 10:14:43;;;;;;;7.07;3.03;;;22.80;67.10;;;;;;4991662;28;20030;-82
2021/07/10 10:17:09;;;;;;;6.18;2.95;;;22.80;67.50;;;;;;4992198;28;20104;-81
2021/07/10 10:19:35;;;;;;;5.47;2.75;;;22.80;66.70;;;;;;4991594;28;20342;-81
2021/07/10 10:22:05;;;;;;;4.18;2.40;;;22.80;66.70;;;;;;4992340;28;20018;-81
2021/07/10 10:24:31;;;;;;;4.50;2.47;;;22.90;66.30;;;;;;5008012;28;20022;-82
2021/07/10 10:26:58;;;;;;;5.25;2.78;;;22.90;66.20;;;;;;4990986;28;20038;-81
2021/07/10 10:29:25;;;;;;;5.63;2.80;;;22.90;66.00;;;;;;5007986;28;20027;-82
2021/07/10 10:31:52;;;;;;;4.03;2.33;;;23.00;65.90;;;;;;4990844;28;20026;-81
2021/07/10 10:34:18;;;;;;;7.07;3.17;;;23.00;65.70;;;;;;4991045;28;20037;-82
2021/07/10 10:36:48;;;;;;;4.82;2.65;;;23.10;65.70;;;;;;4991389;28;20037;-82
2021/07/10 10:39:20;;;;;;;6.22;3.55;;;23.10;65.50;;;;;;4994416;28;20018;-81
2021/07/10 10:41:50;;;;;;;7.40;3.50;;;23.10;65.50;;;;;;4995326;28;20081;-82
2021/07/10 10:44:16;;;;;;;6.43;3.28;;;23.00;65.70;;;;;;4996740;28;20026;-82
2021/07/10 10:47:03;;;;;;;7.55;3.90;;;23.00;65.60;;;;;;4995131;28;20370;-82
2021/07/10 10:49:39;;;;;;;5.70;3.28;;;23.00;65.60;;;;;;4994412;28;20037;-82
2021/07/10 10:52:35;;;;;;;8.73;3.72;;;23.00;65.70;;;;;;4995855;28;20076;-82
2021/07/10 10:55:13;;;;;;;6.00;3.03;;;23.10;65.50;;;;;;4995729;28;20068;-81
2021/07/10 10:57:40;;;;;;;7.75;4.25;;;23.20;65.70;;;;;;4996512;28;20343;-82
2021/07/10 11:00:12;;;;;;;9.27;3.92;;;23.30;65.10;;;;;;4995671;28;20027;-82
2021/07/10 11:03:02;;;;;;;7.03;3.47;;;23.40;64.80;;;;;;4996646;28;20083;-83
2021/07/10 11:05:31;;;;;;;7.35;3.30;;;23.50;64.50;;;;;;4982120;28;20141;-83
2021/07/10 11:08:21;;;;;;;7.53;3.33;;;23.60;64.20;;;;;;4995535;28;20023;-82
2021/07/10 11:10:58;;;;;;;6.47;3.65;;;23.70;63.80;;;;;;4995931;28;20417;-83
2021/07/10 11:13:35;;;;;;;4.95;2.92;;;23.80;63.60;;;;;;4994748;28;20029;-82
2021/07/10 11:16:08;;;;;;;6.72;3.30;;;23.80;63.50;;;;;;4995847;28;20109;-84
2021/07/10 11:18:50;;;;;;;4.45;2.50;;;23.80;63.50;;;;;;4996071;28;20034;-83
2021/07/10 11:21:45;;;;;;;7.60;4.10;;;23.90;63.40;;;;;;4995364;28;20536;-83
2021/07/10 11:24:20;;;;;;;7.35;3.60;;;24.00;63.30;;;;;;4993906;28;20033;-81
2021/07/10 11:26:55;;;;;;;7.82;4.05;;;24.20;63.30;;;;;;4995890;28;20034;-82
2021/07/10 11:29:21;;;;;;;7.30;3.88;;;24.20;62.90;;;;;;4994315;28;20136;-81
2021/07/10 11:31:47;;;;;;;6.53;3.58;;;24.20;62.90;;;;;;4994294;28;20125;-82
2021/07/10 11:34:32;;;;;;;7.85;4.00;;;24.30;62.80;;;;;;4993586;28;20092;-82
2021/07/10 11:37:00;;;;;;;5.53;3.15;;;24.40;62.60;;;;;;4994892;28;20023;-82
2021/07/10 11:39:47;;;;;;;9.15;4.78;;;24.60;62.50;;;;;;4994383;28;20354;-83
2021/07/10 11:42:22;;;;;;;10.70;4.18;;;24.60;62.10;;;;;;4900354;29;20373;-83
2021/07/10 11:44:53;;;;;;;7.55;3.65;;;24.50;62.10;;;;;;4916777;29;20143;-83
2021/07/10 11:47:32;;;;;;;8.90;4.78;;;24.50;62.40;;;;;;4916613;29;20114;-83
2021/07/10 11:49:59;;;;;;;7.13;4.15;;;24.40;62.60;;;;;;4915377;29;20039;-83
2021/07/10 11:52:25;;;;;;;9.35;4.38;;;24.40;62.90;;;;;;4899925;29;20035;-83
2021/07/10 11:54:54;;;;;;;8.70;5.00;;;24.40;62.90;;;;;;4900279;29;20056;-83
2021/07/10 11:57:21;;;;;;;7.93;4.38;;;24.50;62.60;;;;;;4900338;29;20028;-83
2021/07/10 11:59:47;;;;;;;9.48;4.82;;;24.60;62.50;;;;;;4900015;29;20035;-83
2021/07/10 12:02:35;;;;;;;9.27;5.13;;;24.60;62.30;;;;;;4915176;29;20232;-83
2021/07/10 12:05:08;;;;;;;9.40;5.38;;;24.60;62.20;;;;;;4899736;29;20028;-83
2021/07/10 12:07:34;;;;;;;8.80;5.28;;;24.70;62.20;;;;;;4916128;29;20127;-83
2021/07/10 12:10:00;;;;;;;9.82;4.80;;;24.80;62.00;;;;;;4899337;29;20025;-83
2021/07/10 12:12:26;;;;;;;6.13;3.50;;;24.90;61.70;;;;;;4900214;29;20038;-83
2021/07/10 12:14:56;;;;;;;6.75;4.15;;;25.10;61.30;;;;;;4899943;29;20036;-84
2021/07/10 12:17:23;;;;;;;8.38;4.03;;;25.30;60.70;;;;;;4899892;29;20377;-84
2021/07/10 12:19:50;;;;;;;8.38;4.30;;;25.40;60.40;;;;;;4966414;28;20117;-84
2021/07/10 12:22:21;;;;;;;10.23;5.00;;;25.50;60.50;;;;;;4994348;28;20254;-82
2021/07/10 12:24:47;;;;;;;7.20;4.20;;;25.60;60.40;;;;;;4987743;28;20033;-81
2021/07/10 12:27:17;;;;;;;6.55;3.72;;;25.60;59.90;;;;;;4960592;28;20517;-83
2021/07/10 12:29:50;;;;;;;7.35;3.38;;;25.60;59.80;;;;;;4959886;28;20040;-83
2021/07/10 12:32:16;;;;;;;6.57;3.10;;;25.80;59.30;;;;;;4978203;28;20036;-84
2021/07/10 12:34:53;;;;;;;6.10;2.90;;;25.70;59.20;;;;;;4973886;28;20571;-83
2021/07/10 12:37:28;;;;;;;4.82;2.45;;;25.60;58.20;;;;;;4990603;28;20022;-83
2021/07/10 12:40:11;;;;;;;3.80;2.55;;;25.70;57.90;;;;;;4977389;28;20035;-82
2021/07/10 12:42:38;;;;;;;4.30;2.47;;;25.70;58.10;;;;;;4974842;28;20027;-83